TimeMDT,TemperatureF,Dew PointF,Humidity,Sea Level PressureIn,VisibilityMPH,Wind Direction,Wind SpeedMPH,Gust SpeedMPH,PrecipitationIn,Events,Conditions,WindDirDegrees,DateUTC
12:54 AM,59.0,48.9,69,29.64,10.0,South,10.4,16.1,N/A,,Clear,180,2013-09-18 06:54:00
1:54 AM,55.0,46.9,74,29.68,10.0,NNW,10.4,-,N/A,,Clear,340,2013-09-18 07:54:00
2:54 AM,54.0,44.1,69,29.68,10.0,North,9.2,-,N/A,,Clear,360,2013-09-18 08:54:00
3:54 AM,51.1,44.1,77,29.68,10.0,SSE,10.4,-,N/A,,Clear,150,2013-09-18 09:54:00
4:54 AM,50.0,43.0,77,29.69,10.0,NNW,3.5,-,N/A,,Clear,330,2013-09-18 10:54:00
5:54 AM,50.0,43.0,77,29.69,10.0,NE,4.6,-,N/A,,Clear,50,2013-09-18 11:54:00
6:54 AM,51.1,42.1,71,29.70,10.0,ESE,4.6,-,N/A,,Clear,110,2013-09-18 12:54:00
7:54 AM,52.0,45.0,77,29.74,10.0,SSW,4.6,-,N/A,,Clear,200,2013-09-18 13:54:00
8:54 AM,53.1,43.0,69,29.76,10.0,West,12.7,-,N/A,,Clear,270,2013-09-18 14:54:00
9:54 AM,55.9,43.0,62,29.79,10.0,West,17.3,23.0,N/A,,Clear,270,2013-09-18 15:54:00
10:54 AM,59.0,42.1,53,29.80,10.0,West,17.3,21.9,N/A,,Clear,260,2013-09-18 16:54:00
11:54 AM,63.0,37.0,38,29.78,10.0,West,24.2,29.9,N/A,,Partly Cloudy,260,2013-09-18 17:54:00
12:54 PM,63.0,37.0,38,29.78,10.0,WNW,19.6,27.6,N/A,,Partly Cloudy,290,2013-09-18 18:54:00
1:54 PM,64.0,34.0,33,29.78,10.0,West,25.3,32.2,N/A,,Clear,260,2013-09-18 19:54:00
2:54 PM,64.9,33.1,31,29.78,10.0,West,23.0,34.5,N/A,,Clear,260,2013-09-18 20:54:00
3:54 PM,66.0,27.0,23,29.78,10.0,West,28.8,36.8,N/A,,Clear,260,2013-09-18 21:54:00
4:54 PM,64.9,24.1,21,29.80,10.0,WNW,26.5,34.5,N/A,,Clear,290,2013-09-18 22:54:00
5:54 PM,61.0,23.0,23,29.83,10.0,West,20.7,29.9,N/A,,Clear,280,2013-09-18 23:54:00
6:54 PM,57.9,21.9,25,29.86,10.0,WNW,18.4,25.3,N/A,,Clear,300,2013-09-19 00:54:00
7:54 PM,55.0,23.0,29,29.89,10.0,WNW,12.7,24.2,N/A,,Clear,300,2013-09-19 01:54:00
8:54 PM,52.0,27.0,38,29.94,10.0,NW,11.5,21.9,N/A,,Clear,310,2013-09-19 02:54:00
9:54 PM,50.0,26.1,39,29.96,10.0,NW,13.8,-,N/A,,Clear,310,2013-09-19 03:54:00
10:54 PM,48.9,23.0,36,29.96,10.0,WNW,15.0,-,N/A,,Clear,300,2013-09-19 04:54:00
11:54 PM,45.0,25.0,46,29.97,10.0,WNW,11.5,-,N/A,,Clear,290,2013-09-19 05:54:00